This is the latest recevied weather packets stored in our database for station/object WP3OF-5. If no packets are shown the sender has not sent any weather packets the latest 10 day(s).
| Time | Temp. | Humidity | Pressure | Rain* | Wind** | Luminosity | Snow |
|---|---|---|---|---|---|---|---|
| 1777912607 | 31.67° C | 53% | 1016.4 hPa | 0 mm | - | - | - |
| 1777912303 | 31.67° C | 51% | 1016.3 hPa | 0 mm | - | - | - |
| 1777911999 | 31.11° C | 52% | 1016.3 hPa | 0 mm | - | - | - |
| 1777911696 | 32.22° C | 49% | 1016.6 hPa | 0 mm | - | - | - |
| 1777911392 | 31.67° C | 52% | 1016.4 hPa | 0 mm | - | - | - |
| 1777911090 | 32.22° C | 51% | 1016.6 hPa | 0 mm | - | - | - |
| 1777910787 | 32.22° C | 52% | 1016.5 hPa | 0 mm | - | - | - |
| 1777910484 | 31.67° C | 51% | 1016.6 hPa | 0 mm | - | - | - |
| 1777910180 | 32.22° C | 53% | 1016.5 hPa | 0 mm | - | - | - |
| 1777909877 | 31.67° C | 54% | 1016.7 hPa | 0 mm | - | - | - |
| 1777909574 | 31.11° C | 53% | 1016.8 hPa | 0 mm | - | - | - |
| 1777909271 | 30° C | 57% | 1016.3 hPa | 0 mm | - | - | - |
| 1777908970 | 30.56° C | 56% | 1016.9 hPa | 0 mm | - | - | - |
| 1777908668 | 31.11° C | 54% | 1016.8 hPa | 0 mm | - | - | - |
| 1777908364 | 31.11° C | 56% | 1016.6 hPa | 0 mm | - | - | - |
| 1777908060 | 31.11° C | 53% | 1016.7 hPa | 0 mm | - | - | - |
| 1777907756 | 31.11° C | 55% | 1016.8 hPa | 0 mm | - | - | - |
| 1777907451 | 30.56° C | 56% | 1016.8 hPa | 0 mm | - | - | - |
| 1777907148 | 31.11° C | 53% | 1016.7 hPa | 0 mm | - | - | - |
| 1777906846 | 30.56° C | 55% | 1016.8 hPa | 0 mm | - | - | - |
| 1777906543 | 30.56° C | 56% | 1017 hPa | 0 mm | - | - | - |
| 1777906238 | 31.11° C | 55% | 1017 hPa | 0 mm | - | - | - |
| 1777905935 | 31.11° C | 55% | 1017 hPa | 0 mm | - | - | - |
| 1777905632 | 30.56° C | 57% | 1017 hPa | 0 mm | - | - | - |
| 1777905329 | 30.56° C | 57% | 1017.1 hPa | 0 mm | - | - | - |
* Rain latest hour (hover to see other rain measurements)
** Current wind speed in m/s (hover to see current wind gust speed)